Flight Track Log - Related Links

Times and Time Zones

All times are in EDT time to prevent confusion due to time zone crossing. See the FLG3432 flight status page for this flight to view local times or setup timezone preferences in your user account.

Time Position Orientation Groundspeed Altitude Reporting Facility
EDT Latitude Longitude Course Direction KTS MPH feet Rate Location/Type
Wed 01:02:43 PM 42.2036 -83.3583 217° Southwest 143 165 1,500  Level Cleveland Center
Wed 01:03:25 PM 42.1781 -83.3822 215° Southwest 180 207 2,700 2,214 Climbing Cleveland Center
Wed 01:04:26 PM 42.1331 -83.4281 217° Southwest 217 250 5,300 2,457 Climbing Cleveland Center
Wed 01:05:32 PM 42.0736 -83.4728 209° Southwest 252 290 7,900 2,810 Climbing Cleveland Center
Wed 01:06:00 PM 41.9536 -83.6733 217° Southwest  Level Estimated
Wed 01:06:32 PM 42.0078 -83.5258 211° Southwest 273 314 11,200  Level Cleveland Center
Wed 01:07:00 PM 41.8888 -83.7529 206° Southwest  Level Estimated
Wed 01:07:32 PM 41.9500 -83.5789 214° Southwest 265 305 14,100  Level Cleveland Center
Wed 01:08:00 PM 41.8239 -83.8323 217° Southwest  Level Estimated
Wed 01:08:32 PM 41.8819 -83.6317 210° Southwest 265 305 16,600  Level Cleveland Center
Wed 01:09:31 PM 41.8158 -83.6869 212° Southwest 283 326 18,900 1,700 Climbing Cleveland Center
Wed 01:10:32 PM 41.7411 -83.7447 210° Southwest 293 337 20,000 545 Climbing Cleveland Center
Wed 01:11:32 PM 41.6603 -83.8072 210° Southwest 319 367 20,000  Level Cleveland Center
Wed 01:12:32 PM 41.5750 -83.8753 211° Southwest 343 395 20,000  Level Cleveland Center
Wed 01:13:24 PM 41.5072 -83.9269 210° Southwest 347 399 20,000  Level Chicago Center
Wed 01:14:26 PM 41.4228 -83.9931 210° Southwest 351 404 20,000  Level Chicago Center
Wed 01:15:28 PM 41.3392 -84.0603 211° Southwest 351 404 20,000  Level Chicago Center
Wed 01:16:30 PM 41.2572 -84.1242 210° Southwest 342 394 20,000  Level Chicago Center
Wed 01:17:32 PM 41.1786 -84.2203 223° Southwest 321 369 20,000  Level Chicago Center
Wed 01:19:15 PM 41.0744 -84.3506 223° Southwest 320 368 20,000  Level Indianapolis Center
Wed 01:20:17 PM 41.0092 -84.4331 224° Southwest 322 371 20,000  Level Indianapolis Center
Wed 01:21:19 PM 40.9436 -84.5161 224° Southwest 323 372 20,000  Level Indianapolis Center
Wed 01:22:20 PM 40.8661 -84.6136 224° Southwest 327 376 20,000  Level Indianapolis Center
Wed 01:23:22 PM 40.7989 -84.6972 223° Southwest 332 382 20,000  Level Indianapolis Center
Wed 01:24:24 PM 40.7322 -84.7803 223° Southwest 328 377 20,000  Level Indianapolis Center
Wed 01:25:26 PM 40.6664 -84.8644 224° Southwest 328 377 20,000  Level Indianapolis Center
Wed 01:26:28 PM 40.6028 -84.9400 222° Southwest 331 381 20,000  Level Indianapolis Center
Wed 01:27:30 PM 40.5242 -85.0397 224° Southwest 328 377 20,000  Level Indianapolis Center
Wed 01:28:31 PM 40.4581 -85.1219 223° Southwest 329 379 20,000 -49 Level Indianapolis Center
Wed 01:29:32 PM 40.3911 -85.2022 222° Southwest 329 379 19,900 -387 Descending Chicago Center
Wed 01:30:35 PM 40.3247 -85.2844 223° Southwest 326 375 19,200 -864 Descending Indianapolis Center
Wed 01:31:37 PM 40.2592 -85.3658 223° Southwest 326 375 18,100 -1,403 Descending Indianapolis Center
Wed 01:32:39 PM 40.2056 -85.4556 232° Southwest 316 364 16,300 -1,854 Descending Indianapolis Center
Wed 01:33:40 PM 40.1547 -85.5522 235° Southwest 323 372 14,300 -2,146 Descending Indianapolis Center
Wed 01:34:42 PM 40.0914 -85.6722 235° Southwest 333 383 11,900 -2,032 Descending Indianapolis Center
Wed 01:35:44 PM 40.0414 -85.7667 235° Southwest 322 371 10,100 -1,500 Descending Indianapolis Center
Wed 01:36:46 PM 39.9942 -85.8431 231° Southwest 278 320 8,800 -1,415 Descending Indianapolis Center
Wed 01:37:47 PM 39.9472 -85.9147 230° Southwest 264 304 7,200 -1,415 Descending Indianapolis Center
Wed 01:38:49 PM 39.9100 -85.9883 237° Southwest 254 292 5,900 -968 Descending Indianapolis Center
Wed 01:39:51 PM 39.8825 -86.0569 242° Southwest 234 269 5,200 -1,065 Descending Indianapolis Center
Wed 01:40:53 PM 39.8422 -86.1233 232° Southwest 212 244 3,700 -976 Descending Indianapolis Center
Wed 01:41:54 PM 39.8053 -86.1703 224° Southwest 197 227 3,200 -488 Descending Indianapolis Center
Wed 01:42:56 PM 39.7694 -86.2150 224° Southwest 187 215 2,700 -871 Descending Indianapolis Center
Wed 01:43:58 PM 39.7378 -86.2553 224° Southwest 171 197 1,400 -1,258 Descending Indianapolis Center

Login

Don't have an account? Register now (free) for customized features, flight alerts, and more!